Time,TemperatureF,DewpointF,PressureIn,WindDirection,WindDirectionDegrees,WindSpeedMPH,WindSpeedGustMPH,Humidity,HourlyPrecipIn,Conditions,Clouds,dailyrainin,SoftwareType,DateUTC
2013-11-01 08:20:00,56.3,54.6,29.72,West,270,1.0,3.0,94,0.09,,---,0.16,VWS V14.01,2013-11-01 12:20:00,
2013-11-01 08:21:00,56.3,54.6,29.74,SE,130,1.0,2.0,94,0.06,,---,0.16,VWS V14.01,2013-11-01 12:21:00,
2013-11-01 08:22:00,56.3,54.6,29.74,SE,130,0.0,1.0,94,0.05,,---,0.16,VWS V14.01,2013-11-01 12:22:00,
2013-11-01 08:27:00,56.2,54.5,29.73,ESE,106,0.0,1.0,94,0.03,,---,0.16,VWS V14.01,2013-11-01 12:27:00,
2013-11-01 08:32:00,55.9,54.2,29.74,ESE,114,2.0,2.0,94,0.02,,---,0.16,VWS V14.01,2013-11-01 12:32:00,
2013-11-01 08:37:00,55.8,54.1,29.74,NNE,29,0.0,0.0,94,0.01,,---,0.16,VWS V14.01,2013-11-01 12:37:00,
2013-11-01 08:42:00,55.7,54.3,29.74,SSE,147,0.0,1.0,95,0.00,,---,0.16,VWS V14.01,2013-11-01 12:42:00,
2013-11-01 08:47:00,55.7,54.3,29.75,NNE,13,3.0,4.0,95,0.00,,---,0.16,VWS V14.01,2013-11-01 12:47:00,
2013-11-01 08:52:00,55.9,54.5,29.75,SSE,162,0.0,0.0,95,0.00,,---,0.16,VWS V14.01,2013-11-01 12:52:00,
2013-11-01 08:57:00,56.0,54.6,29.75,SSE,163,0.0,1.0,95,0.00,,---,0.16,VWS V14.01,2013-11-01 12:57:00,
2013-11-01 09:02:00,56.0,54.6,29.76,WNW,284,0.0,1.0,95,0.00,,---,0.16,VWS V14.01,2013-11-01 13:02:00,
2013-11-01 09:07:00,56.1,55.0,29.76,WNW,284,0.0,0.0,96,0.00,,---,0.16,VWS V14.01,2013-11-01 13:07:00,
2013-11-01 09:12:00,56.1,55.0,29.76,WNW,285,0.0,0.0,96,0.00,,---,0.16,VWS V14.01,2013-11-01 13:12:00,
2013-11-01 09:17:00,56.2,55.1,29.76,North,1,0.0,0.0,96,0.00,,---,0.16,VWS V14.01,2013-11-01 13:17:00,
2013-11-01 09:22:00,56.1,55.0,29.76,North,1,0.0,0.0,96,0.00,,---,0.16,VWS V14.01,2013-11-01 13:22:00,
2013-11-01 09:27:00,56.2,55.1,29.77,North,8,2.0,2.0,96,0.00,,---,0.16,VWS V14.01,2013-11-01 13:27:00,
2013-11-01 09:32:00,56.3,55.2,29.76,North,6,0.0,0.0,96,0.00,,---,0.16,VWS V14.01,2013-11-01 13:32:00,
2013-11-01 09:37:00,56.4,55.3,29.77,North,6,0.0,0.0,96,0.00,,---,0.16,VWS V14.01,2013-11-01 13:37:00,
2013-11-01 09:42:00,56.5,55.4,29.76,NNW,341,0.0,1.0,96,0.00,,---,0.16,VWS V14.01,2013-11-01 13:42:00,
2013-11-01 09:47:00,56.5,55.4,29.76,NNW,342,0.0,0.0,96,0.00,,---,0.16,VWS V14.01,2013-11-01 13:47:00,
2013-11-01 09:52:00,56.6,55.5,29.76,NNW,343,0.0,0.0,96,0.00,,---,0.16,VWS V14.01,2013-11-01 13:52:00,
2013-11-01 09:57:00,56.6,55.5,29.76,NNW,343,0.0,0.0,96,0.00,,---,0.16,VWS V14.01,2013-11-01 13:57:00,
2013-11-01 10:02:00,56.6,55.5,29.76,NNW,343,0.0,0.0,96,0.00,,---,0.16,VWS V14.01,2013-11-01 14:02:00,
2013-11-01 10:07:00,56.5,55.4,29.76,NNW,343,0.0,1.0,96,0.00,,---,0.16,VWS V14.01,2013-11-01 14:07:00,
2013-11-01 10:12:00,56.4,55.3,29.75,NNW,343,0.0,0.0,96,0.00,,---,0.16,VWS V14.01,2013-11-01 14:12:00,
2013-11-01 10:17:00,56.3,55.2,29.75,NNW,343,1.0,1.0,96,0.00,,---,0.16,VWS V14.01,2013-11-01 14:17:00,
2013-11-01 10:22:00,56.5,54.8,29.75,SE,130,1.0,1.0,94,0.00,,---,0.16,VWS V14.01,2013-11-01 14:22:00,
2013-11-01 10:27:00,56.8,54.8,29.75,SSE,167,1.0,1.0,93,0.00,,---,0.16,VWS V14.01,2013-11-01 14:27:00,
2013-11-01 10:32:00,57.1,53.9,29.75,ESE,112,0.0,1.0,89,0.00,,---,0.16,VWS V14.01,2013-11-01 14:32:00,
2013-11-01 10:37:00,57.4,53.6,29.75,SSE,154,1.0,2.0,87,0.00,,---,0.16,VWS V14.01,2013-11-01 14:37:00,
2013-11-01 10:42:00,58.1,53.9,29.74,SE,134,1.0,3.0,86,0.00,,---,0.16,VWS V14.01,2013-11-01 14:42:00,
2013-11-01 10:47:00,58.6,54.8,29.74,SE,126,0.0,1.0,87,0.00,,---,0.16,VWS V14.01,2013-11-01 14:47:00,
2013-11-01 10:52:00,59.0,53.8,29.74,East,80,0.0,0.0,83,0.00,,---,0.16,VWS V14.01,2013-11-01 14:52:00,
2013-11-01 10:57:00,59.4,53.9,29.73,SE,131,1.0,1.0,82,0.00,,---,0.16,VWS V14.01,2013-11-01 14:57:00,
2013-11-01 11:02:00,59.4,52.9,29.73,NNW,333,1.0,2.0,79,0.00,,---,0.16,VWS V14.01,2013-11-01 15:02:00,
2013-11-01 11:07:00,59.7,52.8,29.73,NNE,32,0.0,4.0,78,0.00,,---,0.16,VWS V14.01,2013-11-01 15:07:00,
2013-11-01 11:12:00,60.4,53.2,29.73,SW,219,0.0,1.0,77,0.00,,---,0.16,VWS V14.01,2013-11-01 15:12:00,
2013-11-01 11:17:00,61.0,54.5,29.73,ESE,114,0.0,0.0,79,0.00,,---,0.16,VWS V14.01,2013-11-01 15:17:00,
2013-11-01 11:22:00,61.3,52.2,29.73,SW,218,0.0,2.0,72,0.00,,---,0.16,VWS V14.01,2013-11-01 15:22:00,
2013-11-01 11:27:00,61.7,53.7,29.73,South,185,2.0,2.0,75,0.00,,---,0.16,VWS V14.01,2013-11-01 15:27:00,
2013-11-01 11:32:00,62.1,53.3,29.72,SE,124,1.0,2.0,73,0.00,,---,0.16,VWS V14.01,2013-11-01 15:32:00,
2013-11-01 11:37:00,62.5,51.8,29.73,SSE,162,0.0,1.0,68,0.00,,---,0.16,VWS V14.01,2013-11-01 15:37:00,
2013-11-01 11:42:00,63.0,54.2,29.73,SE,133,1.0,2.0,73,0.00,,---,0.16,VWS V14.01,2013-11-01 15:42:00,
2013-11-01 11:47:00,62.6,54.2,29.72,SSW,209,1.0,1.0,74,0.00,,---,0.16,VWS V14.01,2013-11-01 15:47:00,
2013-11-01 11:52:00,63.1,51.6,29.72,NNE,18,3.0,3.0,66,0.00,,---,0.16,VWS V14.01,2013-11-01 15:52:00,
2013-11-01 11:57:00,63.1,53.6,29.72,SE,127,1.0,1.0,71,0.00,,---,0.16,VWS V14.01,2013-11-01 15:57:00,
2013-11-01 12:02:00,63.3,50.5,29.72,SE,126,4.0,4.0,63,0.00,,---,0.16,VWS V14.01,2013-11-01 16:02:00,
2013-11-01 12:07:00,63.7,51.3,29.72,ENE,65,2.0,2.0,64,0.00,,---,0.16,VWS V14.01,2013-11-01 16:07:00,
2013-11-01 12:12:00,63.6,52.0,29.71,NNE,25,2.0,2.0,66,0.00,,---,0.16,VWS V14.01,2013-11-01 16:12:00,
2013-11-01 12:17:00,63.6,49.5,29.71,NW,322,0.0,0.0,60,0.00,,---,0.16,VWS V14.01,2013-11-01 16:17:00,
2013-11-01 12:22:00,64.5,52.1,29.71,WSW,245,1.0,2.0,64,0.00,,---,0.16,VWS V14.01,2013-11-01 16:22:00,
2013-11-01 12:27:00,65.8,52.0,29.70,South,183,1.0,2.0,61,0.00,,---,0.16,VWS V14.01,2013-11-01 16:27:00,
2013-11-01 12:32:00,66.4,51.2,29.70,WNW,298,1.0,3.0,58,0.00,,---,0.16,VWS V14.01,2013-11-01 16:32:00,
2013-11-01 12:37:00,66.7,49.0,29.70,West,269,2.0,6.0,53,0.00,,---,0.16,VWS V14.01,2013-11-01 16:37:00,
2013-11-01 12:42:00,66.7,50.0,29.70,NNW,333,1.0,1.0,55,0.00,,---,0.16,VWS V14.01,2013-11-01 16:42:00,
2013-11-01 12:47:00,67.1,49.4,29.69,SSE,148,1.0,4.0,53,0.00,,---,0.16,VWS V14.01,2013-11-01 16:47:00,
2013-11-01 12:52:00,66.8,49.1,29.69,SSE,157,1.0,3.0,53,0.00,,---,0.16,VWS V14.01,2013-11-01 16:52:00,
2013-11-01 12:57:00,67.5,49.3,29.69,SE,138,0.0,2.0,52,0.00,,---,0.16,VWS V14.01,2013-11-01 16:57:00,
2013-11-01 13:02:00,68.0,50.8,29.69,South,174,3.0,3.0,54,0.00,,---,0.16,VWS V14.01,2013-11-01 17:02:00,
2013-11-01 13:07:00,68.7,50.4,29.69,SSW,201,3.0,4.0,52,0.00,,---,0.16,VWS V14.01,2013-11-01 17:07:00,
2013-11-01 13:12:00,69.3,51.5,29.68,SSW,194,1.0,2.0,53,0.00,,---,0.16,VWS V14.01,2013-11-01 17:12:00,
2013-11-01 13:17:00,69.7,48.6,29.68,WNW,284,1.0,2.0,47,0.00,,---,0.16,VWS V14.01,2013-11-01 17:17:00,
2013-11-01 13:22:00,69.9,52.5,29.68,SW,226,2.0,2.0,54,0.00,,---,0.16,VWS V14.01,2013-11-01 17:22:00,
2013-11-01 13:27:00,70.3,48.6,29.67,WNW,288,2.0,3.0,46,0.00,,---,0.16,VWS V14.01,2013-11-01 17:27:00,
2013-11-01 13:32:00,70.6,50.5,29.67,NNW,333,1.0,2.0,49,0.00,,---,0.16,VWS V14.01,2013-11-01 17:32:00,
2013-11-01 13:37:00,71.0,49.8,29.67,WNW,293,2.0,2.0,47,0.00,,---,0.16,VWS V14.01,2013-11-01 17:37:00,
2013-11-01 13:42:00,70.4,49.2,29.67,WSW,243,1.0,3.0,47,0.00,,---,0.16,VWS V14.01,2013-11-01 17:42:00,
2013-11-01 13:47:00,70.7,47.1,29.66,West,260,1.0,2.0,43,0.00,,---,0.16,VWS V14.01,2013-11-01 17:47:00,
2013-11-01 13:52:00,71.1,47.5,29.66,WNW,285,1.0,3.0,43,0.00,,---,0.16,VWS V14.01,2013-11-01 17:52:00,
2013-11-01 13:57:00,71.6,47.3,29.66,WNW,300,1.0,1.0,42,0.00,,---,0.16,VWS V14.01,2013-11-01 17:57:00,
2013-11-01 14:02:00,71.1,48.1,29.65,WSW,253,2.0,3.0,44,0.00,,---,0.16,VWS V14.01,2013-11-01 18:02:00,
2013-11-01 14:07:00,70.9,47.9,29.65,NNE,15,2.0,3.0,44,0.00,,---,0.16,VWS V14.01,2013-11-01 18:07:00,
2013-11-01 14:12:00,71.3,49.5,29.65,WNW,302,3.0,3.0,46,0.00,,---,0.16,VWS V14.01,2013-11-01 18:12:00,
2013-11-01 14:17:00,71.5,47.2,29.65,WNW,300,2.0,4.0,42,0.00,,---,0.16,VWS V14.01,2013-11-01 18:17:00,
2013-11-01 14:22:00,71.8,47.5,29.65,West,262,2.0,5.0,42,0.00,,---,0.16,VWS V14.01,2013-11-01 18:22:00,
2013-11-01 14:27:00,71.8,47.5,29.65,SE,129,0.0,4.0,42,0.00,,---,0.16,VWS V14.01,2013-11-01 18:27:00,
2013-11-01 14:32:00,72.0,48.3,29.64,SSE,168,0.0,2.0,43,0.00,,---,0.16,VWS V14.01,2013-11-01 18:32:00,
2013-11-01 14:37:00,72.0,48.9,29.64,WNW,289,2.0,2.0,44,0.00,,---,0.16,VWS V14.01,2013-11-01 18:37:00,
2013-11-01 14:42:00,72.1,49.0,29.64,WNW,288,1.0,2.0,44,0.00,,---,0.16,VWS V14.01,2013-11-01 18:42:00,
2013-11-01 14:47:00,72.9,49.1,29.64,West,281,1.0,4.0,43,0.00,,---,0.16,VWS V14.01,2013-11-01 18:47:00,
2013-11-01 14:52:00,73.4,48.9,29.64,South,172,1.0,2.0,42,0.00,,---,0.16,VWS V14.01,2013-11-01 18:52:00,
2013-11-01 14:57:00,73.6,47.8,29.64,SSE,157,2.0,2.0,40,0.00,,---,0.16,VWS V14.01,2013-11-01 18:57:00,
2013-11-01 15:02:00,73.5,50.3,29.63,WSW,238,1.0,2.0,44,0.00,,---,0.16,VWS V14.01,2013-11-01 19:02:00,
2013-11-01 15:07:00,73.2,48.8,29.63,WSW,256,2.0,3.0,42,0.00,,---,0.16,VWS V14.01,2013-11-01 19:07:00,
2013-11-01 15:12:00,72.7,47.0,29.63,NW,309,2.0,2.0,40,0.00,,---,0.16,VWS V14.01,2013-11-01 19:12:00,
2013-11-01 15:17:00,72.8,47.1,29.62,West,269,2.0,2.0,40,0.00,,---,0.16,VWS V14.01,2013-11-01 19:17:00,
2013-11-01 15:22:00,72.7,47.7,29.62,WNW,290,2.0,2.0,41,0.00,,---,0.16,VWS V14.01,2013-11-01 19:22:00,
2013-11-01 15:27:00,72.7,48.3,29.62,SE,134,1.0,3.0,42,0.00,,---,0.16,VWS V14.01,2013-11-01 19:27:00,
2013-11-01 15:32:00,73.0,49.8,29.61,WNW,300,0.0,1.0,44,0.00,,---,0.16,VWS V14.01,2013-11-01 19:32:00,
2013-11-01 17:03:00,70.7,52.2,29.61,ESE,112,1.0,2.0,52,0.00,,---,0.00,VWS V14.01,2013-11-01 21:03:00,
2013-11-01 17:08:00,71.0,52.0,29.61,WNW,282,1.0,1.0,51,0.16,,---,0.16,VWS V14.01,2013-11-01 21:08:00,
2013-11-01 17:13:00,70.6,51.6,29.61,ESE,108,2.0,3.0,51,0.16,,---,0.16,VWS V14.01,2013-11-01 21:13:00,
2013-11-01 17:18:00,69.6,50.7,29.61,SE,146,1.0,1.0,51,0.16,,---,0.16,VWS V14.01,2013-11-01 21:18:00,
2013-11-01 17:23:00,68.8,52.0,29.61,WSW,246,0.0,1.0,55,0.16,,---,0.16,VWS V14.01,2013-11-01 21:23:00,
2013-11-01 17:28:00,68.2,50.9,29.61,ENE,64,0.0,0.0,54,0.16,,---,0.16,VWS V14.01,2013-11-01 21:28:00,
2013-11-01 17:33:00,67.4,50.7,29.61,ESE,110,1.0,1.0,55,0.16,,---,0.16,VWS V14.01,2013-11-01 21:33:00,
2013-11-01 17:38:00,66.7,50.5,29.61,ESE,105,0.0,0.0,56,0.16,,---,0.16,VWS V14.01,2013-11-01 21:38:00,
2013-11-01 17:43:00,66.3,50.6,29.62,South,181,3.0,4.0,57,0.16,,---,0.16,VWS V14.01,2013-11-01 21:43:00,
2013-11-01 17:48:00,65.9,50.7,29.62,ESE,115,0.0,0.0,58,0.16,,---,0.16,VWS V14.01,2013-11-01 21:48:00,
2013-11-01 17:53:00,65.5,50.8,29.62,South,172,0.0,0.0,59,0.16,,---,0.16,VWS V14.01,2013-11-01 21:53:00,
2013-11-01 17:58:00,65.2,50.5,29.62,SW,223,0.0,0.0,59,0.16,,---,0.16,VWS V14.01,2013-11-01 21:58:00,
2013-11-01 18:03:00,64.6,50.4,29.63,SSE,156,0.0,0.0,60,0.00,,---,0.16,VWS V14.01,2013-11-01 22:03:00,
2013-11-01 18:08:00,64.3,50.1,29.63,South,184,0.0,0.0,60,0.00,,---,0.16,VWS V14.01,2013-11-01 22:08:00,
2013-11-01 18:13:00,64.0,49.8,29.63,ENE,77,1.0,2.0,60,0.00,,---,0.16,VWS V14.01,2013-11-01 22:13:00,
2013-11-01 18:19:00,63.7,50.0,29.63,South,184,0.0,0.0,61,0.00,,---,0.16,VWS V14.01,2013-11-01 22:19:00,
2013-11-01 18:24:00,63.4,49.7,29.63,WSW,245,0.0,1.0,61,0.00,,---,0.16,VWS V14.01,2013-11-01 22:24:00,
2013-11-01 18:29:00,63.1,49.5,29.64,WSW,243,1.0,2.0,61,0.00,,---,0.16,VWS V14.01,2013-11-01 22:29:00,
2013-11-01 18:34:00,62.7,49.1,29.64,ENE,74,1.0,1.0,61,0.00,,---,0.16,VWS V14.01,2013-11-01 22:34:00,
2013-11-01 18:39:00,62.3,48.7,29.64,East,91,2.0,7.0,61,0.00,,---,0.16,VWS V14.01,2013-11-01 22:39:00,
2013-11-01 18:44:00,62.2,48.6,29.64,WNW,289,2.0,4.0,61,0.00,,---,0.16,VWS V14.01,2013-11-01 22:44:00,
2013-11-01 18:49:00,61.9,48.8,29.64,ESE,108,1.0,1.0,62,0.00,,---,0.16,VWS V14.01,2013-11-01 22:49:00,
2013-11-01 18:54:00,61.6,48.5,29.65,ESE,118,0.0,0.0,62,0.00,,---,0.16,VWS V14.01,2013-11-01 22:54:00,
2013-11-01 18:59:00,61.3,48.2,29.65,SSW,211,1.0,1.0,62,0.00,,---,0.16,VWS V14.01,2013-11-01 22:59:00,
2013-11-01 19:05:00,61.1,48.0,29.65,WNW,284,1.0,3.0,62,0.00,,---,0.16,VWS V14.01,2013-11-01 23:05:00,
2013-11-01 19:10:00,60.9,47.8,29.66,WNW,302,1.0,2.0,62,0.00,,---,0.16,VWS V14.01,2013-11-01 23:10:00,
2013-11-01 19:15:00,60.6,48.0,29.66,WSW,244,1.0,2.0,63,0.00,,---,0.16,VWS V14.01,2013-11-01 23:15:00,
2013-11-01 19:20:00,60.4,48.2,29.66,SE,134,1.0,1.0,64,0.00,,---,0.16,VWS V14.01,2013-11-01 23:20:00,
2013-11-01 19:25:00,60.1,47.5,29.66,SE,143,0.0,1.0,63,0.00,,---,0.16,VWS V14.01,2013-11-01 23:25:00,
2013-11-01 19:30:00,59.9,47.7,29.66,SE,142,0.0,1.0,64,0.00,,---,0.16,VWS V14.01,2013-11-01 23:30:00,
2013-11-01 19:35:00,59.7,48.3,29.67,SE,139,0.0,0.0,66,0.00,,---,0.16,VWS V14.01,2013-11-01 23:35:00,
2013-11-01 19:40:00,59.4,48.0,29.67,South,172,1.0,1.0,66,0.00,,---,0.16,VWS V14.01,2013-11-01 23:40:00,
2013-11-01 19:45:00,59.1,48.6,29.67,East,82,1.0,1.0,68,0.00,,---,0.16,VWS V14.01,2013-11-01 23:45:00,
2013-11-01 19:50:00,58.9,48.0,29.67,ENE,75,0.0,0.0,67,0.00,,---,0.16,VWS V14.01,2013-11-01 23:50:00,
2013-11-01 19:55:00,58.6,47.7,29.67,SSE,149,1.0,1.0,67,0.00,,---,0.16,VWS V14.01,2013-11-01 23:55:00,
2013-11-01 20:00:00,58.6,47.3,29.68,SE,127,2.0,4.0,66,0.00,,---,0.16,VWS V14.01,2013-11-02 00:00:00,
2013-11-01 20:05:00,58.6,48.1,29.68,NW,313,0.0,1.0,68,0.00,,---,0.16,VWS V14.01,2013-11-02 00:05:00,
2013-11-01 20:10:00,58.3,47.4,29.68,SE,125,1.0,2.0,67,0.00,,---,0.16,VWS V14.01,2013-11-02 00:10:00,
2013-11-01 20:15:00,58.0,47.5,29.68,NNE,15,2.0,2.0,68,0.00,,---,0.16,VWS V14.01,2013-11-02 00:15:00,
2013-11-01 20:20:00,57.9,47.8,29.68,SE,131,0.0,0.0,69,0.00,,---,0.16,VWS V14.01,2013-11-02 00:20:00,
2013-11-01 20:25:00,57.6,47.5,29.69,WNW,295,0.0,0.0,69,0.00,,---,0.16,VWS V14.01,2013-11-02 00:25:00,
2013-11-01 20:30:00,57.4,47.3,29.69,SSW,210,0.0,0.0,69,0.00,,---,0.16,VWS V14.01,2013-11-02 00:30:00,
2013-11-01 20:35:00,57.2,48.3,29.69,SSW,210,0.0,0.0,72,0.00,,---,0.16,VWS V14.01,2013-11-02 00:35:00,
2013-11-01 20:41:00,57.0,48.4,29.69,SSE,148,0.0,0.0,73,0.00,,---,0.16,VWS V14.01,2013-11-02 00:41:00,
2013-11-01 20:46:00,56.8,47.1,29.69,West,269,0.0,1.0,70,0.00,,---,0.16,VWS V14.01,2013-11-02 00:46:00,
2013-11-01 20:51:00,56.9,47.2,29.69,WNW,301,1.0,1.0,70,0.00,,---,0.16,VWS V14.01,2013-11-02 00:51:00,
2013-11-01 20:56:00,56.8,47.9,29.69,SSE,149,0.0,0.0,72,0.00,,---,0.16,VWS V14.01,2013-11-02 00:56:00,
2013-11-01 21:01:00,56.6,46.9,29.69,SSE,151,0.0,0.0,70,0.00,,---,0.16,VWS V14.01,2013-11-02 01:01:00,
2013-11-01 21:06:00,56.5,48.0,29.69,NW,308,0.0,0.0,73,0.00,,---,0.16,VWS V14.01,2013-11-02 01:06:00,
2013-11-01 21:11:00,56.3,47.8,29.69,NW,308,0.0,0.0,73,0.00,,---,0.16,VWS V14.01,2013-11-02 01:11:00,
2013-11-01 21:16:00,56.0,47.8,29.69,SW,214,0.0,0.0,74,0.00,,---,0.16,VWS V14.01,2013-11-02 01:16:00,
2013-11-01 21:21:00,55.8,46.5,29.70,WNW,299,0.0,0.0,71,0.00,,---,0.16,VWS V14.01,2013-11-02 01:21:00,
2013-11-01 21:26:00,56.0,46.7,29.70,NE,39,0.0,0.0,71,0.00,,---,0.16,VWS V14.01,2013-11-02 01:26:00,
2013-11-01 21:31:00,55.9,46.7,29.70,NE,39,0.0,0.0,71,0.00,,---,0.16,VWS V14.01,2013-11-02 01:31:00,
2013-11-01 21:36:00,55.8,46.2,29.70,SE,146,2.0,2.0,70,0.00,,---,0.16,VWS V14.01,2013-11-02 01:36:00,
2013-11-01 21:41:00,55.8,45.8,29.70,East,79,0.0,0.0,69,0.00,,---,0.16,VWS V14.01,2013-11-02 01:41:00,
2013-11-01 21:46:00,55.7,46.5,29.70,East,81,0.0,0.0,71,0.00,,---,0.16,VWS V14.01,2013-11-02 01:46:00,
2013-11-01 21:51:00,55.5,46.6,29.70,East,81,0.0,0.0,72,0.00,,---,0.16,VWS V14.01,2013-11-02 01:51:00,
2013-11-01 21:56:00,55.0,47.2,29.70,East,81,0.0,1.0,75,0.00,,---,0.16,VWS V14.01,2013-11-02 01:56:00,
2013-11-01 22:01:00,54.5,46.4,29.70,East,80,0.0,0.0,74,0.00,,---,0.16,VWS V14.01,2013-11-02 02:01:00,
2013-11-01 22:06:00,53.9,46.9,29.70,East,81,0.0,0.0,77,0.00,,---,0.16,VWS V14.01,2013-11-02 02:06:00,
2013-11-01 22:11:00,53.5,47.2,29.71,East,80,0.0,0.0,79,0.00,,---,0.16,VWS V14.01,2013-11-02 02:11:00,
2013-11-01 22:16:00,53.2,46.9,29.70,East,79,0.0,0.0,79,0.00,,---,0.16,VWS V14.01,2013-11-02 02:16:00,
2013-11-01 22:21:00,52.8,46.8,29.71,East,81,0.0,1.0,80,0.00,,---,0.16,VWS V14.01,2013-11-02 02:21:00,
2013-11-01 22:26:00,52.5,46.2,29.71,East,80,0.0,0.0,79,0.00,,---,0.16,VWS V14.01,2013-11-02 02:26:00,
2013-11-01 22:31:00,52.3,46.0,29.71,East,79,0.0,0.0,79,0.00,,---,0.16,VWS V14.01,2013-11-02 02:31:00,
2013-11-01 22:36:00,52.3,46.0,29.71,East,79,0.0,0.0,79,0.00,,---,0.16,VWS V14.01,2013-11-02 02:36:00,
2013-11-01 22:41:00,52.3,45.7,29.71,East,79,0.0,0.0,78,0.00,,---,0.16,VWS V14.01,2013-11-02 02:41:00,
2013-11-01 22:46:00,52.2,46.2,29.72,East,81,0.0,1.0,80,0.00,,---,0.16,VWS V14.01,2013-11-02 02:46:00,
2013-11-01 22:51:00,52.2,46.2,29.72,West,271,0.0,0.0,80,0.00,,---,0.16,VWS V14.01,2013-11-02 02:51:00,
2013-11-01 22:56:00,52.4,46.4,29.72,NW,305,0.0,0.0,80,0.00,,---,0.16,VWS V14.01,2013-11-02 02:56:00,
2013-11-01 23:01:00,53.1,46.1,29.72,ENE,58,0.0,0.0,77,0.00,,---,0.16,VWS V14.01,2013-11-02 03:01:00,
2013-11-01 23:06:00,53.7,47.0,29.72,SE,127,0.0,0.0,78,0.00,,---,0.16,VWS V14.01,2013-11-02 03:06:00,
2013-11-01 23:11:00,53.8,46.1,29.72,NNE,32,0.0,0.0,75,0.00,,---,0.16,VWS V14.01,2013-11-02 03:11:00,
2013-11-01 23:16:00,54.2,45.8,29.72,ESE,116,2.0,2.0,73,0.00,,---,0.16,VWS V14.01,2013-11-02 03:16:00,
2013-11-01 23:21:00,54.8,46.0,29.72,South,191,0.0,1.0,72,0.00,,---,0.16,VWS V14.01,2013-11-02 03:21:00,
2013-11-01 23:26:00,54.8,46.0,29.73,ENE,65,0.0,0.0,72,0.00,,---,0.16,VWS V14.01,2013-11-02 03:26:00,
2013-11-01 23:31:00,54.9,45.3,29.72,SSE,156,1.0,3.0,70,0.00,,---,0.16,VWS V14.01,2013-11-02 03:31:00,
2013-11-01 23:36:00,54.8,46.0,29.72,West,275,0.0,0.0,72,0.00,,---,0.16,VWS V14.01,2013-11-02 03:36:00,
2013-11-01 23:41:00,54.4,45.9,29.73,ESE,121,0.0,1.0,73,0.00,,---,0.16,VWS V14.01,2013-11-02 03:41:00,
2013-11-01 23:46:00,54.1,45.3,29.73,SE,130,0.0,0.0,72,0.00,,---,0.16,VWS V14.01,2013-11-02 03:46:00,
2013-11-01 23:51:00,54.1,44.9,29.73,NW,318,2.0,2.0,71,0.00,,---,0.16,VWS V14.01,2013-11-02 03:51:00,
2013-11-01 23:56:00,54.4,44.1,29.73,SW,231,0.0,0.0,68,0.00,,---,0.16,VWS V14.01,2013-11-02 03:56:00,